sensor_id;sensor_type;location;lat;lon;timestamp;pressure;altitude;pressure_sealevel;temperature;humidity
55079;BME280;55187;49.496;6.010;2022-12-08T00:01:16;97073.59;;;0.75;100.00
55079;BME280;55187;49.496;6.010;2022-12-08T00:03:43;97063.34;;;0.74;100.00
55079;BME280;55187;49.496;6.010;2022-12-08T00:06:34;97072.66;;;0.67;100.00
55079;BME280;55187;49.496;6.010;2022-12-08T00:09:17;97064.00;;;0.76;100.00
55079;BME280;55187;49.496;6.010;2022-12-08T00:11:49;97060.19;;;0.60;100.00
55079;BME280;55187;49.496;6.010;2022-12-08T00:14:16;97050.84;;;0.77;100.00
55079;BME280;55187;49.496;6.010;2022-12-08T00:16:49;97052.34;;;0.80;100.00
55079;BME280;55187;49.496;6.010;2022-12-08T00:19:24;97047.44;;;0.77;100.00
55079;BME280;55187;49.496;6.010;2022-12-08T00:21:51;97047.16;;;0.70;100.00
55079;BME280;55187;49.496;6.010;2022-12-08T00:24:18;97037.28;;;0.64;100.00
55079;BME280;55187;49.496;6.010;2022-12-08T00:26:46;97031.84;;;0.67;100.00
55079;BME280;55187;49.496;6.010;2022-12-08T00:29:13;97042.78;;;0.71;100.00
55079;BME280;55187;49.496;6.010;2022-12-08T00:31:49;97034.69;;;0.64;100.00
55079;BME280;55187;49.496;6.010;2022-12-08T00:34:15;97032.22;;;0.72;100.00
55079;BME280;55187;49.496;6.010;2022-12-08T00:36:42;97027.31;;;0.59;100.00
55079;BME280;55187;49.496;6.010;2022-12-08T00:39:10;97013.47;;;0.59;100.00
55079;BME280;55187;49.496;6.010;2022-12-08T00:41:44;97025.66;;;0.58;100.00
55079;BME280;55187;49.496;6.010;2022-12-08T00:44:22;97020.72;;;0.65;100.00
55079;BME280;55187;49.496;6.010;2022-12-08T00:46:49;97018.94;;;0.66;100.00
55079;BME280;55187;49.496;6.010;2022-12-08T00:49:16;97014.13;;;0.71;100.00
55079;BME280;55187;49.496;6.010;2022-12-08T00:51:42;97011.53;;;0.71;100.00
55079;BME280;55187;49.496;6.010;2022-12-08T00:54:10;97013.31;;;0.70;100.00
55079;BME280;55187;49.496;6.010;2022-12-08T00:56:37;97010.28;;;0.75;100.00
55079;BME280;55187;49.496;6.010;2022-12-08T00:59:05;97012.78;;;0.76;100.00
55079;BME280;55187;49.496;6.010;2022-12-08T01:01:32;97001.50;;;0.76;100.00
55079;BME280;55187;49.496;6.010;2022-12-08T01:04:06;97001.53;;;0.66;100.00
55079;BME280;55187;49.496;6.010;2022-12-08T01:06:37;97001.94;;;0.71;100.00
55079;BME280;55187;49.496;6.010;2022-12-08T01:09:06;96998.38;;;0.72;100.00
55079;BME280;55187;49.496;6.010;2022-12-08T01:11:34;96994.41;;;0.68;100.00
55079;BME280;55187;49.496;6.010;2022-12-08T01:14:01;96994.69;;;0.65;100.00
55079;BME280;55187;49.496;6.010;2022-12-08T01:16:31;96997.81;;;0.69;100.00
55079;BME280;55187;49.496;6.010;2022-12-08T01:18:59;96997.56;;;0.72;100.00
55079;BME280;55187;49.496;6.010;2022-12-08T01:21:26;96991.69;;;0.60;100.00
55079;BME280;55187;49.496;6.010;2022-12-08T01:24:02;96992.50;;;0.60;100.00
55079;BME280;55187;49.496;6.010;2022-12-08T01:26:29;96991.81;;;0.58;100.00
55079;BME280;55187;49.496;6.010;2022-12-08T01:28:55;96981.28;;;0.60;100.00
55079;BME280;55187;49.496;6.010;2022-12-08T01:31:32;96983.88;;;0.50;100.00
55079;BME280;55187;49.496;6.010;2022-12-08T01:33:58;96991.81;;;0.58;100.00
55079;BME280;55187;49.496;6.010;2022-12-08T01:36:27;96989.06;;;0.50;100.00
55079;BME280;55187;49.496;6.010;2022-12-08T01:38:56;96998.81;;;0.48;100.00
55079;BME280;55187;49.496;6.010;2022-12-08T01:41:25;96987.97;;;0.53;100.00
55079;BME280;55187;49.496;6.010;2022-12-08T01:46:52;96983.06;;;0.50;100.00
55079;BME280;55187;49.496;6.010;2022-12-08T01:49:29;96992.53;;;0.51;100.00
55079;BME280;55187;49.496;6.010;2022-12-08T01:52:04;96985.81;;;0.58;100.00
55079;BME280;55187;49.496;6.010;2022-12-08T01:54:40;96987.84;;;0.54;100.00
55079;BME280;55187;49.496;6.010;2022-12-08T01:57:13;96985.38;;;0.53;100.00
55079;BME280;55187;49.496;6.010;2022-12-08T01:59:46;96979.09;;;0.55;100.00
55079;BME280;55187;49.496;6.010;2022-12-08T02:02:13;96980.84;;;0.55;100.00
55079;BME280;55187;49.496;6.010;2022-12-08T02:04:49;96986.47;;;0.50;100.00
55079;BME280;55187;49.496;6.010;2022-12-08T02:07:24;96978.94;;;0.57;100.00
55079;BME280;55187;49.496;6.010;2022-12-08T02:09:52;96984.44;;;0.44;100.00
55079;BME280;55187;49.496;6.010;2022-12-08T02:12:18;96984.97;;;0.48;100.00
55079;BME280;55187;49.496;6.010;2022-12-08T02:14:45;96973.88;;;0.46;100.00
55079;BME280;55187;49.496;6.010;2022-12-08T02:17:38;96972.09;;;0.36;100.00
55079;BME280;55187;49.496;6.010;2022-12-08T02:20:25;96969.78;;;0.33;100.00
55079;BME280;55187;49.496;6.010;2022-12-08T02:23:07;96971.00;;;0.29;100.00
55079;BME280;55187;49.496;6.010;2022-12-08T02:25:48;96968.28;;;0.31;100.00
55079;BME280;55187;49.496;6.010;2022-12-08T02:28:50;96967.72;;;0.27;100.00
55079;BME280;55187;49.496;6.010;2022-12-08T02:31:50;96968.81;;;0.34;100.00
55079;BME280;55187;49.496;6.010;2022-12-08T02:34:34;96966.50;;;0.22;100.00
55079;BME280;55187;49.496;6.010;2022-12-08T02:40:01;96955.00;;;0.24;100.00
55079;BME280;55187;49.496;6.010;2022-12-08T02:42:41;96952.53;;;0.13;100.00
55079;BME280;55187;49.496;6.010;2022-12-08T02:45:18;96959.66;;;0.30;100.00
55079;BME280;55187;49.496;6.010;2022-12-08T02:47:48;96956.66;;;0.35;100.00
55079;BME280;55187;49.496;6.010;2022-12-08T02:50:15;96957.19;;;0.29;100.00
55079;BME280;55187;49.496;6.010;2022-12-08T02:52:47;96948.28;;;0.22;100.00
55079;BME280;55187;49.496;6.010;2022-12-08T02:55:21;96942.81;;;0.25;100.00
55079;BME280;55187;49.496;6.010;2022-12-08T03:03:48;96940.59;;;0.30;100.00
55079;BME280;55187;49.496;6.010;2022-12-08T03:09:34;96942.00;;;0.24;100.00
55079;BME280;55187;49.496;6.010;2022-12-08T03:12:17;96937.47;;;0.26;100.00
55079;BME280;55187;49.496;6.010;2022-12-08T03:14:49;96934.03;;;0.35;100.00
55079;BME280;55187;49.496;6.010;2022-12-08T03:17:28;96931.03;;;0.30;100.00
55079;BME280;55187;49.496;6.010;2022-12-08T03:19:57;96922.81;;;0.25;100.00
55079;BME280;55187;49.496;6.010;2022-12-08T03:22:27;96925.97;;;0.29;100.00
55079;BME280;55187;49.496;6.010;2022-12-08T03:24:54;96913.50;;;0.32;100.00
55079;BME280;55187;49.496;6.010;2022-12-08T03:27:28;96921.72;;;0.37;100.00
55079;BME280;55187;49.496;6.010;2022-12-08T03:29:57;96913.09;;;0.37;100.00
55079;BME280;55187;49.496;6.010;2022-12-08T03:32:37;96912.81;;;0.30;100.00
55079;BME280;55187;49.496;6.010;2022-12-08T03:35:08;96911.31;;;0.18;100.00
55079;BME280;55187;49.496;6.010;2022-12-08T03:37:38;96914.75;;;0.18;100.00
55079;BME280;55187;49.496;6.010;2022-12-08T03:40:07;96907.63;;;0.11;100.00
55079;BME280;55187;49.496;6.010;2022-12-08T03:42:33;96901.75;;;-0.01;100.00
55079;BME280;55187;49.496;6.010;2022-12-08T03:45:00;96895.59;;;0.10;100.00
55079;BME280;55187;49.496;6.010;2022-12-08T03:47:26;96894.88;;;0.17;100.00
55079;BME280;55187;49.496;6.010;2022-12-08T03:49:53;96898.72;;;0.23;100.00
55079;BME280;55187;49.496;6.010;2022-12-08T03:52:19;96882.28;;;0.23;100.00
55079;BME280;55187;49.496;6.010;2022-12-08T03:54:45;96876.94;;;0.24;100.00
55079;BME280;55187;49.496;6.010;2022-12-08T03:57:12;96885.72;;;0.23;100.00
55079;BME280;55187;49.496;6.010;2022-12-08T03:59:39;96877.38;;;0.19;100.00
55079;BME280;55187;49.496;6.010;2022-12-08T04:02:05;96876.16;;;0.04;100.00
55079;BME280;55187;49.496;6.010;2022-12-08T04:04:31;96876.69;;;0.08;100.00
55079;BME280;55187;49.496;6.010;2022-12-08T04:06:58;96876.72;;;-0.02;100.00
55079;BME280;55187;49.496;6.010;2022-12-08T04:09:24;96872.06;;;-0.08;100.00
55079;BME280;55187;49.496;6.010;2022-12-08T04:11:58;96870.00;;;-0.14;100.00
55079;BME280;55187;49.496;6.010;2022-12-08T04:14:24;96869.06;;;-0.13;100.00
55079;BME280;55187;49.496;6.010;2022-12-08T04:16:51;96873.97;;;-0.01;100.00
55079;BME280;55187;49.496;6.010;2022-12-08T04:19:25;96873.53;;;0.04;100.00
55079;BME280;55187;49.496;6.010;2022-12-08T04:21:51;96878.75;;;0.04;100.00
55079;BME280;55187;49.496;6.010;2022-12-08T04:24:18;96877.25;;;0.02;100.00
55079;BME280;55187;49.496;6.010;2022-12-08T04:26:44;96870.41;;;0.01;100.00
55079;BME280;55187;49.496;6.010;2022-12-08T04:29:15;96864.63;;;0.07;100.00
55079;BME280;55187;49.496;6.010;2022-12-08T04:31:41;96873.69;;;0.12;100.00
55079;BME280;55187;49.496;6.010;2022-12-08T04:34:08;96869.84;;;0.16;100.00
55079;BME280;55187;49.496;6.010;2022-12-08T04:36:43;96867.34;;;0.25;100.00
55079;BME280;55187;49.496;6.010;2022-12-08T04:42:11;96865.19;;;0.10;100.00
55079;BME280;55187;49.496;6.010;2022-12-08T04:44:38;96875.47;;;0.12;100.00
55079;BME280;55187;49.496;6.010;2022-12-08T04:47:04;96863.00;;;0.06;100.00
55079;BME280;55187;49.496;6.010;2022-12-08T04:49:30;96859.31;;;0.08;100.00
55079;BME280;55187;49.496;6.010;2022-12-08T04:52:06;96867.50;;;0.13;100.00
55079;BME280;55187;49.496;6.010;2022-12-08T04:54:32;96862.19;;;-0.05;100.00
55079;BME280;55187;49.496;6.010;2022-12-08T04:56:58;96857.69;;;0.07;100.00
55079;BME280;55187;49.496;6.010;2022-12-08T04:59:25;96860.13;;;-0.01;100.00
55079;BME280;55187;49.496;6.010;2022-12-08T05:01:58;96859.03;;;0.02;100.00
55079;BME280;55187;49.496;6.010;2022-12-08T05:04:25;96863.03;;;-0.04;100.00
55079;BME280;55187;49.496;6.010;2022-12-08T05:06:51;96866.03;;;0.01;100.00
55079;BME280;55187;49.496;6.010;2022-12-08T05:09:18;96864.09;;;0.03;100.00
55079;BME280;55187;49.496;6.010;2022-12-08T05:11:44;96861.50;;;0.03;100.00
55079;BME280;55187;49.496;6.010;2022-12-08T05:14:11;96869.31;;;0.03;100.00
55079;BME280;55187;49.496;6.010;2022-12-08T05:16:38;96858.22;;;0.01;100.00
55079;BME280;55187;49.496;6.010;2022-12-08T05:19:08;96853.16;;;-0.10;100.00
55079;BME280;55187;49.496;6.010;2022-12-08T05:21:42;96864.94;;;-0.06;100.00
55079;BME280;55187;49.496;6.010;2022-12-08T05:24:08;96860.56;;;-0.06;100.00
55079;BME280;55187;49.496;6.010;2022-12-08T05:26:46;96860.84;;;-0.09;100.00
55079;BME280;55187;49.496;6.010;2022-12-08T05:29:23;96856.75;;;-0.11;100.00
55079;BME280;55187;49.496;6.010;2022-12-08T05:31:50;96861.81;;;-0.29;100.00
55079;BME280;55187;49.496;6.010;2022-12-08T05:34:16;96852.22;;;-0.29;100.00
55079;BME280;55187;49.496;6.010;2022-12-08T05:36:43;96851.13;;;-0.26;100.00
55079;BME280;55187;49.496;6.010;2022-12-08T05:39:14;96852.38;;;-0.20;100.00
55079;BME280;55187;49.496;6.010;2022-12-08T05:42:29;96850.72;;;-0.22;100.00
55079;BME280;55187;49.496;6.010;2022-12-08T05:44:56;96855.34;;;-0.35;100.00
55079;BME280;55187;49.496;6.010;2022-12-08T05:47:31;96847.81;;;-0.18;100.00
55079;BME280;55187;49.496;6.010;2022-12-08T05:49:57;96849.34;;;-0.16;100.00
55079;BME280;55187;49.496;6.010;2022-12-08T05:52:23;96851.41;;;-0.19;100.00
55079;BME280;55187;49.496;6.010;2022-12-08T05:54:50;96845.38;;;-0.20;100.00
55079;BME280;55187;49.496;6.010;2022-12-08T05:57:27;96845.91;;;-0.26;100.00
55079;BME280;55187;49.496;6.010;2022-12-08T05:59:53;96842.91;;;-0.51;100.00
55079;BME280;55187;49.496;6.010;2022-12-08T06:02:19;96835.66;;;-0.37;100.00
55079;BME280;55187;49.496;6.010;2022-12-08T06:04:46;96830.59;;;-0.49;100.00
55079;BME280;55187;49.496;6.010;2022-12-08T06:07:16;96831.81;;;-0.92;100.00
55079;BME280;55187;49.496;6.010;2022-12-08T06:09:48;96833.84;;;-0.86;100.00
55079;BME280;55187;49.496;6.010;2022-12-08T06:12:14;96834.31;;;-1.21;100.00
55079;BME280;55187;49.496;6.010;2022-12-08T06:14:41;96832.59;;;-1.41;100.00
55079;BME280;55187;49.496;6.010;2022-12-08T06:17:07;96831.16;;;-1.65;100.00
55079;BME280;55187;49.496;6.010;2022-12-08T06:19:33;96837.44;;;-1.67;100.00
55079;BME280;55187;49.496;6.010;2022-12-08T06:22:01;96828.25;;;-1.72;100.00
55079;BME280;55187;49.496;6.010;2022-12-08T06:24:31;96836.44;;;-1.97;100.00
55079;BME280;55187;49.496;6.010;2022-12-08T06:26:58;96834.19;;;-2.12;100.00
55079;BME280;55187;49.496;6.010;2022-12-08T06:29:24;96826.25;;;-2.31;100.00
55079;BME280;55187;49.496;6.010;2022-12-08T06:31:51;96830.47;;;-2.51;100.00
55079;BME280;55187;49.496;6.010;2022-12-08T06:34:18;96838.53;;;-2.65;100.00
55079;BME280;55187;49.496;6.010;2022-12-08T06:36:47;96833.53;;;-2.78;100.00
55079;BME280;55187;49.496;6.010;2022-12-08T06:41:48;96839.53;;;-2.78;100.00
55079;BME280;55187;49.496;6.010;2022-12-08T06:44:18;96841.19;;;-2.88;100.00
55079;BME280;55187;49.496;6.010;2022-12-08T06:46:44;96843.66;;;-2.86;100.00
55079;BME280;55187;49.496;6.010;2022-12-08T06:49:11;96824.84;;;-2.88;100.00
55079;BME280;55187;49.496;6.010;2022-12-08T06:51:37;96828.78;;;-2.73;100.00
55079;BME280;55187;49.496;6.010;2022-12-08T06:54:03;96828.13;;;-2.54;100.00
55079;BME280;55187;49.496;6.010;2022-12-08T06:56:30;96824.91;;;-2.46;100.00
55079;BME280;55187;49.496;6.010;2022-12-08T06:58:56;96818.53;;;-2.21;100.00
55079;BME280;55187;49.496;6.010;2022-12-08T07:01:30;96822.91;;;-2.22;100.00
55079;BME280;55187;49.496;6.010;2022-12-08T07:03:56;96817.78;;;-2.12;100.00
55079;BME280;55187;49.496;6.010;2022-12-08T07:06:32;96822.53;;;-2.17;100.00
55079;BME280;55187;49.496;6.010;2022-12-08T07:09:17;96820.16;;;-2.30;100.00
55079;BME280;55187;49.496;6.010;2022-12-08T07:11:44;96825.56;;;-2.33;100.00
55079;BME280;55187;49.496;6.010;2022-12-08T07:14:11;96821.44;;;-2.36;100.00
55079;BME280;55187;49.496;6.010;2022-12-08T07:16:37;96822.91;;;-2.43;100.00
55079;BME280;55187;49.496;6.010;2022-12-08T07:19:04;96823.91;;;-2.55;100.00
55079;BME280;55187;49.496;6.010;2022-12-08T07:21:31;96822.84;;;-2.53;100.00
55079;BME280;55187;49.496;6.010;2022-12-08T07:24:12;96826.63;;;-2.57;100.00
55079;BME280;55187;49.496;6.010;2022-12-08T07:26:47;96821.53;;;-2.58;100.00
55079;BME280;55187;49.496;6.010;2022-12-08T07:29:13;96817.81;;;-2.65;100.00
55079;BME280;55187;49.496;6.010;2022-12-08T07:31:39;96805.63;;;-2.86;100.00
55079;BME280;55187;49.496;6.010;2022-12-08T07:34:06;96817.59;;;-3.06;100.00
55079;BME280;55187;49.496;6.010;2022-12-08T07:36:40;96815.75;;;-3.15;100.00
55079;BME280;55187;49.496;6.010;2022-12-08T07:39:06;96819.16;;;-3.26;100.00
55079;BME280;55187;49.496;6.010;2022-12-08T07:42:48;96827.38;;;-3.32;100.00
55079;BME280;55187;49.496;6.010;2022-12-08T07:45:15;96808.91;;;-3.27;100.00
55079;BME280;55187;49.496;6.010;2022-12-08T07:47:52;96814.53;;;-3.22;100.00
55079;BME280;55187;49.496;6.010;2022-12-08T07:50:24;96813.94;;;-3.03;100.00
55079;BME280;55187;49.496;6.010;2022-12-08T07:55:41;96806.25;;;-2.61;100.00
55079;BME280;55187;49.496;6.010;2022-12-08T07:58:08;96804.13;;;-2.56;100.00
55079;BME280;55187;49.496;6.010;2022-12-08T08:00:35;96801.03;;;-2.29;100.00
55079;BME280;55187;49.496;6.010;2022-12-08T08:03:02;96795.59;;;-2.26;100.00
55079;BME280;55187;49.496;6.010;2022-12-08T08:05:28;96803.47;;;-2.16;100.00
55079;BME280;55187;49.496;6.010;2022-12-08T08:08:05;96808.31;;;-2.02;100.00
55079;BME280;55187;49.496;6.010;2022-12-08T08:10:31;96798.94;;;-1.93;100.00
55079;BME280;55187;49.496;6.010;2022-12-08T08:12:58;96802.28;;;-1.81;100.00
55079;BME280;55187;49.496;6.010;2022-12-08T08:15:25;96809.13;;;-1.71;100.00
55079;BME280;55187;49.496;6.010;2022-12-08T08:17:53;96802.03;;;-1.38;100.00
55079;BME280;55187;49.496;6.010;2022-12-08T08:20:21;96806.53;;;-1.40;100.00
55079;BME280;55187;49.496;6.010;2022-12-08T08:22:49;96801.34;;;-1.40;100.00
55079;BME280;55187;49.496;6.010;2022-12-08T08:25:17;96809.44;;;-1.23;100.00
55079;BME280;55187;49.496;6.010;2022-12-08T08:27:44;96810.69;;;-1.18;100.00
55079;BME280;55187;49.496;6.010;2022-12-08T08:30:13;96798.41;;;-1.16;100.00
55079;BME280;55187;49.496;6.010;2022-12-08T08:32:40;96797.88;;;-1.00;100.00
55079;BME280;55187;49.496;6.010;2022-12-08T08:35:07;96795.44;;;-0.92;100.00
55079;BME280;55187;49.496;6.010;2022-12-08T08:37:37;96799.56;;;-0.79;100.00
55079;BME280;55187;49.496;6.010;2022-12-08T08:40:23;96805.56;;;-0.69;100.00
55079;BME280;55187;49.496;6.010;2022-12-08T08:42:49;96812.13;;;-0.55;100.00
55079;BME280;55187;49.496;6.010;2022-12-08T08:45:18;96808.59;;;-0.54;100.00
55079;BME280;55187;49.496;6.010;2022-12-08T08:47:53;96807.06;;;-0.37;100.00
55079;BME280;55187;49.496;6.010;2022-12-08T08:50:29;96806.53;;;-0.31;100.00
55079;BME280;55187;49.496;6.010;2022-12-08T08:52:56;96799.09;;;-0.16;100.00
55079;BME280;55187;49.496;6.010;2022-12-08T08:55:23;96814.84;;;-0.08;100.00
55079;BME280;55187;49.496;6.010;2022-12-08T08:57:58;96812.94;;;-0.06;100.00
55079;BME280;55187;49.496;6.010;2022-12-08T09:00:25;96814.97;;;-0.10;100.00
55079;BME280;55187;49.496;6.010;2022-12-08T09:02:54;96815.00;;;-0.19;100.00
55079;BME280;55187;49.496;6.010;2022-12-08T09:05:20;96812.25;;;-0.08;100.00
55079;BME280;55187;49.496;6.010;2022-12-08T09:07:47;96805.38;;;0.10;100.00
55079;BME280;55187;49.496;6.010;2022-12-08T09:10:26;96811.59;;;0.27;100.00
55079;BME280;55187;49.496;6.010;2022-12-08T09:12:59;96804.22;;;0.23;100.00
55079;BME280;55187;49.496;6.010;2022-12-08T09:15:34;96808.91;;;0.19;100.00
55079;BME280;55187;49.496;6.010;2022-12-08T09:18:01;96806.81;;;0.23;100.00
55079;BME280;55187;49.496;6.010;2022-12-08T09:20:35;96807.75;;;0.31;100.00
55079;BME280;55187;49.496;6.010;2022-12-08T09:23:21;96803.84;;;0.17;100.00
55079;BME280;55187;49.496;6.010;2022-12-08T09:25:48;96802.25;;;0.34;100.00
55079;BME280;55187;49.496;6.010;2022-12-08T09:28:14;96812.56;;;0.26;100.00
55079;BME280;55187;49.496;6.010;2022-12-08T09:30:43;96810.31;;;0.51;100.00
55079;BME280;55187;49.496;6.010;2022-12-08T09:35:53;96800.28;;;0.56;100.00
55079;BME280;55187;49.496;6.010;2022-12-08T09:38:19;96800.91;;;0.68;100.00
55079;BME280;55187;49.496;6.010;2022-12-08T09:40:51;96797.19;;;0.70;100.00
55079;BME280;55187;49.496;6.010;2022-12-08T09:46:29;96792.03;;;0.88;100.00
55079;BME280;55187;49.496;6.010;2022-12-08T09:48:58;96791.66;;;0.83;100.00
55079;BME280;55187;49.496;6.010;2022-12-08T09:51:28;96787.53;;;0.53;100.00
55079;BME280;55187;49.496;6.010;2022-12-08T09:54:01;96792.16;;;0.59;100.00
55079;BME280;55187;49.496;6.010;2022-12-08T09:56:39;96791.44;;;0.67;100.00
55079;BME280;55187;49.496;6.010;2022-12-08T10:02:12;96790.78;;;0.65;100.00
55079;BME280;55187;49.496;6.010;2022-12-08T10:04:44;96783.06;;;0.73;100.00
55079;BME280;55187;49.496;6.010;2022-12-08T10:07:24;96783.78;;;0.65;100.00
55079;BME280;55187;49.496;6.010;2022-12-08T10:10:09;96776.56;;;0.59;100.00
55079;BME280;55187;49.496;6.010;2022-12-08T10:15:46;96778.53;;;0.75;100.00
55079;BME280;55187;49.496;6.010;2022-12-08T10:18:27;96769.91;;;0.74;100.00
55079;BME280;55187;49.496;6.010;2022-12-08T10:21:00;96769.38;;;0.71;100.00
55079;BME280;55187;49.496;6.010;2022-12-08T10:23:41;96767.00;;;0.77;100.00
55079;BME280;55187;49.496;6.010;2022-12-08T10:26:16;96760.69;;;0.80;100.00
55079;BME280;55187;49.496;6.010;2022-12-08T10:28:42;96763.88;;;0.74;100.00
55079;BME280;55187;49.496;6.010;2022-12-08T10:31:19;96756.97;;;0.82;100.00
55079;BME280;55187;49.496;6.010;2022-12-08T10:33:58;96757.47;;;0.40;100.00
55079;BME280;55187;49.496;6.010;2022-12-08T10:36:43;96754.75;;;0.88;100.00
55079;BME280;55187;49.496;6.010;2022-12-08T10:42:18;96745.22;;;0.96;100.00
55079;BME280;55187;49.496;6.010;2022-12-08T10:47:41;96736.97;;;1.19;100.00
55079;BME280;55187;49.496;6.010;2022-12-08T10:52:43;96736.16;;;1.18;100.00
55079;BME280;55187;49.496;6.010;2022-12-08T10:55:14;96741.13;;;1.12;100.00
55079;BME280;55187;49.496;6.010;2022-12-08T10:57:51;96740.53;;;0.82;100.00
55079;BME280;55187;49.496;6.010;2022-12-08T11:00:26;96729.31;;;0.99;100.00
55079;BME280;55187;49.496;6.010;2022-12-08T11:05:45;96713.06;;;1.23;100.00
55079;BME280;55187;49.496;6.010;2022-12-08T11:08:14;96725.97;;;1.25;100.00
55079;BME280;55187;49.496;6.010;2022-12-08T11:10:44;96719.69;;;1.36;100.00
55079;BME280;55187;49.496;6.010;2022-12-08T11:13:17;96707.25;;;1.48;100.00
55079;BME280;55187;49.496;6.010;2022-12-08T11:15:53;96707.47;;;1.54;100.00
55079;BME280;55187;49.496;6.010;2022-12-08T11:18:28;96704.78;;;1.46;100.00
55079;BME280;55187;49.496;6.010;2022-12-08T11:20:58;96697.78;;;1.46;100.00
55079;BME280;55187;49.496;6.010;2022-12-08T11:23:35;96688.13;;;1.39;100.00
55079;BME280;55187;49.496;6.010;2022-12-08T11:26:06;96696.38;;;1.34;100.00
55079;BME280;55187;49.496;6.010;2022-12-08T11:28:38;96690.72;;;1.39;100.00
55079;BME280;55187;49.496;6.010;2022-12-08T11:33:55;96683.00;;;1.29;100.00
55079;BME280;55187;49.496;6.010;2022-12-08T11:36:25;96688.13;;;1.39;100.00
55079;BME280;55187;49.496;6.010;2022-12-08T11:38:56;96683.25;;;1.44;100.00
55079;BME280;55187;49.496;6.010;2022-12-08T11:41:30;96683.00;;;1.29;100.00
55079;BME280;55187;49.496;6.010;2022-12-08T11:44:23;96681.84;;;1.50;100.00
55079;BME280;55187;49.496;6.010;2022-12-08T11:46:54;96681.09;;;1.65;100.00
55079;BME280;55187;49.496;6.010;2022-12-08T11:49:36;96667.16;;;1.75;100.00
55079;BME280;55187;49.496;6.010;2022-12-08T11:52:23;96662.97;;;1.82;100.00
55079;BME280;55187;49.496;6.010;2022-12-08T11:55:04;96660.06;;;1.59;100.00
55079;BME280;55187;49.496;6.010;2022-12-08T11:57:42;96660.81;;;1.77;100.00
55079;BME280;55187;49.496;6.010;2022-12-08T12:00:12;96653.19;;;1.58;100.00
55079;BME280;55187;49.496;6.010;2022-12-08T12:02:49;96653.94;;;1.68;100.00
55079;BME280;55187;49.496;6.010;2022-12-08T12:05:43;96654.22;;;1.65;100.00
55079;BME280;55187;49.496;6.010;2022-12-08T12:08:36;96650.41;;;1.85;100.00
55079;BME280;55187;49.496;6.010;2022-12-08T12:11:27;96653.97;;;1.76;100.00
55079;BME280;55187;49.496;6.010;2022-12-08T12:17:05;96646.50;;;1.55;100.00
55079;BME280;55187;49.496;6.010;2022-12-08T12:19:36;96641.06;;;1.75;100.00
55079;BME280;55187;49.496;6.010;2022-12-08T12:22:21;96631.47;;;1.75;100.00
55079;BME280;55187;49.496;6.010;2022-12-08T12:24:50;96634.75;;;1.77;100.00
55079;BME280;55187;49.496;6.010;2022-12-08T12:27:23;96631.84;;;1.54;100.00
55079;BME280;55187;49.496;6.010;2022-12-08T12:30:00;96629.88;;;1.56;100.00
55079;BME280;55187;49.496;6.010;2022-12-08T12:32:44;96629.22;;;1.80;100.00
55079;BME280;55187;49.496;6.010;2022-12-08T12:35:35;96626.94;;;1.85;100.00
55079;BME280;55187;49.496;6.010;2022-12-08T12:38:29;96622.03;;;1.82;100.00
55079;BME280;55187;49.496;6.010;2022-12-08T12:41:11;96621.72;;;1.85;100.00
55079;BME280;55187;49.496;6.010;2022-12-08T12:46:40;96618.97;;;1.61;100.00
55079;BME280;55187;49.496;6.010;2022-12-08T12:52:36;96616.81;;;1.48;100.00
55079;BME280;55187;49.496;6.010;2022-12-08T12:55:19;96615.06;;;1.57;100.00
55079;BME280;55187;49.496;6.010;2022-12-08T12:57:54;96614.22;;;1.82;100.00
55079;BME280;55187;49.496;6.010;2022-12-08T13:00:24;96617.28;;;1.78;100.00
55079;BME280;55187;49.496;6.010;2022-12-08T13:02:52;96617.22;;;1.61;100.00
55079;BME280;55187;49.496;6.010;2022-12-08T13:05:29;96614.59;;;1.61;100.00
55079;BME280;55187;49.496;6.010;2022-12-08T13:08:03;96602.00;;;1.83;100.00
55079;BME280;55187;49.496;6.010;2022-12-08T13:10:37;96607.72;;;1.86;99.99
55079;BME280;55187;49.496;6.010;2022-12-08T13:13:16;96616.94;;;1.73;100.00
55079;BME280;55187;49.496;6.010;2022-12-08T13:16:15;96613.88;;;1.77;100.00
55079;BME280;55187;49.496;6.010;2022-12-08T13:18:48;96622.78;;;1.66;100.00
55079;BME280;55187;49.496;6.010;2022-12-08T13:21:20;96620.84;;;1.42;100.00
55079;BME280;55187;49.496;6.010;2022-12-08T13:26:28;96608.47;;;1.71;100.00
55079;BME280;55187;49.496;6.010;2022-12-08T13:29:04;96609.88;;;1.65;100.00
55079;BME280;55187;49.496;6.010;2022-12-08T13:31:54;96602.59;;;1.42;100.00
55079;BME280;55187;49.496;6.010;2022-12-08T13:34:27;96602.66;;;1.51;100.00
55079;BME280;55187;49.496;6.010;2022-12-08T13:40:09;96597.25;;;1.18;100.00
55079;BME280;55187;49.496;6.010;2022-12-08T13:45:34;96602.81;;;1.23;100.00
55079;BME280;55187;49.496;6.010;2022-12-08T13:51:04;96596.78;;;1.22;100.00
55079;BME280;55187;49.496;6.010;2022-12-08T13:53:35;96587.72;;;1.35;100.00
55079;BME280;55187;49.496;6.010;2022-12-08T13:56:10;96592.44;;;1.31;100.00
55079;BME280;55187;49.496;6.010;2022-12-08T13:58:46;96587.78;;;1.17;100.00
55079;BME280;55187;49.496;6.010;2022-12-08T14:01:17;96591.63;;;1.13;100.00
55079;BME280;55187;49.496;6.010;2022-12-08T14:03:57;96588.66;;;0.99;100.00
55079;BME280;55187;49.496;6.010;2022-12-08T14:06:30;96588.09;;;0.70;100.00
55079;BME280;55187;49.496;6.010;2022-12-08T14:09:02;96589.91;;;0.95;100.00
55079;BME280;55187;49.496;6.010;2022-12-08T14:11:35;96589.50;;;1.08;100.00
55079;BME280;55187;49.496;6.010;2022-12-08T14:14:06;96588.19;;;1.04;100.00
55079;BME280;55187;49.496;6.010;2022-12-08T14:19:41;96577.19;;;0.92;100.00
55079;BME280;55187;49.496;6.010;2022-12-08T14:22:17;96586.56;;;0.85;100.00
55079;BME280;55187;49.496;6.010;2022-12-08T14:24:54;96601.09;;;0.88;100.00
55079;BME280;55187;49.496;6.010;2022-12-08T14:27:32;96594.25;;;0.69;100.00
55079;BME280;55187;49.496;6.010;2022-12-08T14:30:04;96595.34;;;0.66;100.00
55079;BME280;55187;49.496;6.010;2022-12-08T14:32:42;96589.34;;;0.83;100.00
55079;BME280;55187;49.496;6.010;2022-12-08T14:35:31;96598.31;;;0.71;100.00
55079;BME280;55187;49.496;6.010;2022-12-08T14:38:01;96595.06;;;0.51;100.00